createdAt,value
2019-05-26T04:43:49.682Z,99.90
2019-05-26T04:46:18.826Z,99.90
2019-05-26T04:48:47.887Z,99.90
2019-05-26T04:51:17.020Z,99.90
2019-05-26T04:53:46.075Z,99.90
2019-05-26T04:56:15.195Z,99.90
2019-05-26T05:35:52.454Z,98.40
2019-05-26T05:38:21.558Z,97.80
2019-05-26T05:40:59.414Z,96.90
2019-05-26T05:43:21.441Z,97.30
2019-05-26T05:45:50.539Z,97.60
2019-05-26T05:48:19.657Z,96.90
2019-05-26T05:50:48.808Z,96.40
2019-05-26T05:53:17.871Z,95.60
2019-05-26T05:55:47.001Z,94.00
2019-05-26T05:58:16.067Z,92.00
2019-05-26T06:00:45.192Z,91.30
2019-05-26T06:03:14.346Z,90.90
2019-05-26T06:05:43.546Z,90.00
2019-05-26T06:08:12.656Z,88.00
2019-05-26T06:10:41.762Z,82.20
2019-05-26T06:13:10.840Z,77.40
2019-05-26T06:15:39.947Z,75.10
2019-05-26T06:18:09.014Z,75.20
2019-05-26T06:20:38.127Z,76.90
2019-05-26T06:23:07.197Z,79.20
2019-05-26T06:25:36.249Z,83.30
2019-05-26T06:28:05.419Z,82.70
2019-05-26T06:30:34.507Z,83.90
2019-05-26T06:33:03.661Z,84.00
2019-05-26T06:35:33.188Z,82.20
2019-05-26T06:38:02.385Z,79.40
2019-05-26T06:40:31.499Z,80.70
2019-05-26T06:43:00.550Z,79.10
2019-05-26T06:45:29.626Z,78.20
2019-05-26T06:47:58.788Z,74.50
2019-05-26T06:50:27.986Z,71.00
2019-05-26T06:52:57.086Z,64.90
2019-05-26T06:55:26.215Z,62.30
2019-05-26T06:57:55.288Z,60.70
2019-05-26T07:00:24.505Z,60.40
2019-05-26T07:02:53.619Z,61.40
2019-05-26T07:05:22.706Z,62.00
2019-05-26T07:07:51.824Z,66.20
2019-05-26T07:10:20.903Z,70.90
2019-05-26T07:12:50.031Z,74.20
2019-05-26T07:15:19.136Z,77.40
2019-05-26T07:17:48.186Z,78.20
2019-05-26T07:20:17.291Z,78.60
2019-05-26T07:22:46.342Z,81.00
2019-05-26T07:25:15.426Z,81.30
2019-05-26T07:27:44.520Z,80.30
2019-05-26T07:30:14.406Z,79.40
2019-05-26T07:32:43.476Z,77.00
2019-05-26T07:35:13.077Z,73.40
2019-05-26T07:37:42.278Z,71.40
2019-05-26T07:40:11.649Z,68.90
2019-05-26T07:42:40.653Z,66.90
2019-05-26T07:45:11.637Z,65.30
2019-05-26T07:47:40.880Z,62.20
2019-05-26T07:50:10.103Z,62.60
2019-05-26T07:52:39.192Z,61.10
2019-05-26T07:55:08.695Z,61.80
2019-05-26T07:57:37.849Z,60.20
2019-05-26T08:00:08.383Z,59.10
2019-05-26T08:02:37.490Z,58.10
2019-05-26T08:05:06.664Z,55.90
2019-05-26T08:07:35.763Z,52.90
2019-05-26T08:10:05.553Z,52.30
2019-05-26T08:12:34.734Z,53.20
2019-05-26T08:15:04.257Z,51.20
2019-05-26T08:17:34.252Z,50.70
2019-05-26T08:20:03.783Z,48.70
2019-05-26T08:22:32.982Z,50.30
2019-05-26T08:25:02.061Z,50.00
2019-05-26T08:27:31.161Z,48.00
2019-05-26T08:30:00.136Z,47.80
2019-05-26T08:32:29.247Z,46.30
2019-05-26T08:34:58.342Z,47.70
2019-05-26T08:37:27.344Z,47.40
2019-05-26T08:39:58.092Z,47.20
2019-05-26T08:42:41.837Z,46.40
2019-05-26T08:44:58.053Z,46.00
2019-05-26T08:47:27.177Z,48.20
2019-05-26T08:49:56.183Z,48.40
2019-05-26T08:52:25.234Z,49.60
2019-05-26T08:54:54.335Z,50.30
2019-05-26T08:57:23.427Z,47.90
2019-05-26T08:59:52.525Z,46.00
2019-05-26T09:02:21.640Z,46.10
2019-05-26T09:04:50.780Z,45.40
2019-05-26T09:07:19.914Z,45.90
2019-05-26T09:09:49.066Z,45.80
2019-05-26T09:12:18.218Z,46.00
2019-05-26T09:14:47.268Z,47.10
2019-05-26T09:17:16.340Z,47.20
2019-05-26T09:19:45.449Z,47.90
2019-05-26T09:22:14.555Z,49.60
2019-05-26T09:24:43.748Z,50.60
2019-05-26T09:27:12.867Z,50.80
2019-05-26T09:29:42.029Z,52.10
2019-05-26T09:32:11.216Z,53.30
2019-05-26T09:34:40.326Z,55.20
2019-05-26T09:37:09.431Z,55.80
2019-05-26T09:39:38.569Z,56.40
2019-05-26T09:42:07.689Z,58.00
2019-05-26T09:44:36.860Z,59.20
2019-05-26T09:47:05.934Z,59.80
2019-05-26T09:49:35.023Z,59.00
2019-05-26T09:52:04.091Z,59.20
2019-05-26T09:54:33.186Z,60.50
2019-05-26T09:57:02.271Z,60.80
2019-05-26T09:59:31.345Z,61.10
2019-05-26T10:02:00.416Z,63.20
2019-05-26T10:04:29.504Z,61.50
2019-05-26T10:06:58.626Z,60.30
2019-05-26T10:09:27.705Z,60.80
2019-05-26T10:11:56.790Z,60.60
2019-05-26T10:14:25.886Z,59.80
2019-05-26T10:16:55.048Z,60.10
2019-05-26T10:19:24.109Z,61.30
2019-05-26T10:21:53.203Z,61.60
2019-05-26T10:24:22.220Z,62.80
2019-05-26T10:26:51.239Z,62.70
2019-05-26T10:29:20.377Z,63.00
2019-05-26T10:31:49.546Z,63.00
2019-05-26T10:34:18.746Z,64.80
2019-05-26T10:36:47.824Z,64.30
2019-05-26T10:39:16.975Z,63.40
2019-05-26T10:41:46.151Z,65.60
2019-05-26T10:44:22.137Z,65.80
2019-05-26T10:46:51.238Z,66.00
2019-05-26T10:49:20.323Z,66.50
2019-05-26T10:51:49.415Z,64.80
2019-05-26T10:54:18.490Z,63.20
2019-05-26T10:56:56.669Z,63.50
2019-05-26T10:59:25.940Z,63.70
2019-05-26T11:01:55.532Z,64.50
2019-05-26T11:04:24.752Z,64.20
2019-05-26T11:06:53.839Z,64.40
2019-05-26T11:09:23.170Z,62.20
2019-05-26T11:11:52.267Z,63.70
2019-05-26T11:14:21.475Z,63.60
2019-05-26T11:16:51.175Z,62.50
2019-05-26T11:19:20.521Z,62.50
2019-05-26T11:21:49.658Z,62.80
2019-05-26T11:24:22.300Z,64.30
2019-05-26T11:26:51.540Z,65.70
2019-05-26T11:29:30.003Z,64.20
2019-05-26T11:31:59.589Z,65.20
2019-05-26T11:34:30.174Z,64.10
2019-05-26T11:36:59.492Z,66.00
2019-05-26T11:39:29.304Z,66.10
2019-05-26T11:42:12.189Z,67.00
2019-05-26T11:44:29.528Z,66.80
2019-05-26T11:46:58.712Z,66.90
2019-05-26T11:49:27.850Z,67.60
2019-05-26T11:51:57.036Z,67.80
2019-05-26T11:54:26.262Z,69.00
2019-05-26T11:56:55.410Z,68.60
2019-05-26T11:59:27.005Z,67.70
2019-05-26T12:01:56.385Z,67.80
2019-05-26T12:04:26.449Z,68.60
2019-05-26T12:06:55.651Z,65.50
2019-05-26T12:09:24.828Z,68.00
2019-05-26T12:11:53.943Z,67.50
2019-05-26T12:14:34.205Z,66.20
2019-05-26T12:16:53.847Z,65.30
2019-05-26T12:19:22.913Z,66.70
2019-05-26T12:21:52.049Z,67.40
2019-05-26T12:24:21.136Z,69.80
2019-05-26T12:26:51.274Z,67.10
2019-05-26T12:29:20.378Z,68.40
2019-05-26T12:31:49.492Z,67.90
2019-05-26T12:34:18.467Z,67.30
2019-05-26T12:36:47.571Z,68.50
2019-05-26T12:39:16.671Z,68.70
2019-05-26T12:41:46.078Z,71.40
2019-05-26T12:44:15.184Z,71.90
2019-05-26T12:46:44.282Z,72.50
2019-05-26T12:49:13.360Z,73.60
2019-05-26T12:51:42.455Z,74.40
2019-05-26T12:54:11.527Z,74.50
2019-05-26T12:56:40.649Z,76.40
2019-05-26T12:59:09.729Z,78.50
2019-05-26T13:01:38.954Z,80.40
2019-05-26T13:04:08.212Z,82.70
2019-05-26T13:06:37.506Z,84.50
2019-05-26T13:09:09.253Z,86.80
2019-05-26T13:11:40.378Z,89.60
2019-05-26T13:14:09.519Z,91.30
2019-05-26T13:16:38.629Z,93.00
2019-05-26T13:19:07.690Z,93.90
2019-05-26T13:21:36.849Z,95.20
2019-05-26T13:24:06.444Z,93.40
2019-05-26T13:26:35.512Z,94.90
2019-05-26T13:29:04.710Z,95.00
2019-05-26T13:31:33.830Z,97.00
2019-05-26T13:34:02.919Z,94.30
2019-05-26T13:36:32.012Z,94.70
2019-05-26T13:39:03.622Z,94.50
2019-05-26T13:41:32.731Z,95.00
2019-05-26T13:44:01.877Z,96.30
2019-05-26T13:46:31.447Z,95.40
2019-05-26T13:49:00.575Z,95.90
2019-05-26T13:51:50.400Z,96.40
2019-05-26T13:54:29.046Z,98.50
2019-05-26T13:57:00.125Z,98.80
2019-05-26T13:59:31.113Z,96.30
2019-05-26T14:02:00.305Z,96.80
2019-05-26T14:04:29.409Z,97.60
2019-05-26T14:07:15.089Z,99.90
2019-05-26T14:09:44.663Z,99.90
2019-05-26T14:12:25.299Z,99.90
2019-05-26T14:14:55.091Z,99.90
2019-05-26T14:17:25.271Z,99.90
2019-05-26T14:22:36.399Z,99.90
2019-05-26T14:25:07.855Z,99.90
2019-05-26T14:27:37.461Z,99.90
2019-05-26T14:30:10.025Z,99.90
2019-05-26T14:32:39.510Z,99.90
2019-05-26T14:35:08.736Z,99.90
2019-05-26T14:37:38.042Z,99.90
2019-05-26T14:40:08.197Z,99.90
2019-05-26T14:42:37.424Z,99.90
2019-05-26T14:45:07.039Z,99.90
2019-05-26T14:47:36.116Z,99.90
2019-05-26T14:50:05.820Z,99.90
2019-05-26T14:52:34.983Z,99.90
2019-05-26T14:55:06.772Z,99.90
2019-05-26T14:57:35.918Z,99.90
2019-05-26T15:00:05.798Z,99.90
2019-05-26T15:02:35.186Z,99.90
2019-05-26T15:05:04.935Z,99.90
2019-05-26T15:07:42.862Z,99.90
2019-05-26T15:10:12.214Z,99.90
2019-05-26T15:12:41.295Z,99.90
2019-05-26T15:15:10.699Z,99.90
2019-05-26T15:17:39.915Z,99.90
2019-05-26T15:20:09.099Z,99.90
2019-05-26T15:22:38.233Z,99.90
2019-05-26T15:25:26.848Z,99.90
2019-05-26T15:28:14.373Z,99.90
2019-05-26T15:30:44.513Z,99.90
2019-05-26T15:33:13.861Z,99.90
2019-05-26T15:35:44.997Z,99.90
2019-05-26T15:38:14.284Z,99.90
2019-05-26T15:40:52.309Z,99.90
2019-05-26T15:43:42.589Z,99.70
2019-05-26T15:46:24.085Z,99.90
2019-05-26T15:48:42.696Z,99.90
2019-05-26T15:51:12.278Z,99.90
2019-05-26T15:53:41.483Z,99.90
2019-05-26T15:56:10.622Z,99.90
2019-05-26T15:58:40.193Z,99.90
2019-05-26T16:01:09.610Z,99.90
2019-05-26T16:03:38.906Z,99.90
2019-05-26T16:06:08.024Z,99.90
2019-05-26T16:30:59.339Z,99.90
2019-05-26T16:33:28.435Z,99.30
2019-05-26T16:35:57.666Z,99.20
2019-05-26T16:38:27.030Z,99.20
2019-05-26T16:40:59.492Z,99.10
2019-05-26T16:43:28.627Z,98.70
2019-05-26T16:45:57.746Z,99.20
2019-05-26T16:48:26.940Z,99.70
2019-05-26T16:50:56.214Z,99.40
2019-05-26T16:53:25.595Z,98.80
2019-05-26T16:55:54.941Z,99.30
2019-05-26T16:58:24.084Z,99.20
2019-05-26T17:00:53.192Z,99.30
2019-05-26T17:03:22.404Z,99.70
2019-05-26T17:06:05.264Z,99.70
2019-05-26T17:08:22.506Z,99.90
2019-05-26T17:10:51.645Z,99.90
2019-05-26T17:13:20.748Z,99.90
2019-05-26T17:15:49.854Z,99.90
2019-05-26T17:18:18.913Z,99.90
2019-05-26T17:20:48.074Z,99.90
2019-05-26T17:23:17.301Z,99.90
2019-05-26T17:25:46.536Z,99.90
2019-05-26T17:28:15.723Z,99.90
2019-05-26T17:30:45.119Z,99.90
2019-05-26T17:33:14.438Z,99.90
2019-05-26T17:35:45.350Z,99.90
2019-05-26T17:38:19.871Z,99.90
2019-05-26T17:40:49.848Z,99.90
2019-05-26T17:43:22.072Z,99.90
2019-05-26T17:45:57.222Z,99.90
2019-05-26T17:48:28.318Z,99.90
2019-05-26T17:50:59.779Z,99.90
2019-05-26T17:53:29.054Z,99.90
2019-05-26T17:55:58.165Z,99.90
2019-05-26T17:58:27.234Z,99.90
2019-05-26T18:00:58.374Z,99.90
2019-05-26T18:03:27.522Z,99.90
2019-05-26T18:05:56.611Z,99.90
